Time;durP1;ratioP1;P1;durP2;ratioP2;P2;SDS_P1;SDS_P2;PMS_P1;PMS_P2;Temp;Humidity;BMP_temperature;BMP_pressure;BME280_temperature;BME280_humidity;BME280_pressure;Samples;Min_cycle;Max_cycle;Signal;HPM_P1;HPM_P2
2022/10/30 00:00:08;;;;;;;9.80;5.07;;;18.90;99.90;;;;;;5068837;28;20189;-37
2022/10/30 00:02:34;;;;;;;8.77;4.50;;;18.90;99.90;;;;;;5069232;28;20204;-37
2022/10/30 00:05:00;;;;;;;7.23;4.80;;;18.90;99.90;;;;;;5069325;28;20419;-38
2022/10/30 00:07:25;;;;;;;10.10;5.57;;;18.90;99.90;;;;;;5067366;28;20267;-37
2022/10/30 00:09:51;;;;;;;8.60;5.13;;;18.90;99.90;;;;;;5081639;28;20192;-37
2022/10/30 00:12:16;;;;;;;7.00;4.73;;;18.90;99.90;;;;;;5068545;28;20181;-38
2022/10/30 00:14:42;;;;;;;8.07;4.60;;;18.90;99.90;;;;;;5068890;28;20209;-37
2022/10/30 00:17:08;;;;;;;6.20;4.33;;;18.90;99.90;;;;;;5069015;28;20690;-38
2022/10/30 00:19:33;;;;;;;12.07;5.40;;;18.90;99.90;;;;;;5069135;28;20182;-38
2022/10/30 00:22:01;;;;;;;10.33;5.20;;;19.00;99.90;;;;;;5068030;28;20182;-38
2022/10/30 00:24:28;;;;;;;9.70;4.70;;;18.90;99.90;;;;;;5073631;28;20192;-38
2022/10/30 00:26:54;;;;;;;8.47;4.83;;;18.80;99.90;;;;;;5085887;28;20963;-38
2022/10/30 00:29:22;;;;;;;8.10;5.30;;;18.80;99.90;;;;;;5087691;28;20433;-38
2022/10/30 00:31:48;;;;;;;9.23;4.87;;;18.90;99.90;;;;;;5089200;28;20442;-38
2022/10/30 00:34:14;;;;;;;9.90;5.30;;;18.90;99.90;;;;;;5089255;28;20812;-39
2022/10/30 00:36:39;;;;;;;9.43;4.50;;;18.90;99.90;;;;;;5088297;28;20191;-37
2022/10/30 00:39:05;;;;;;;10.80;5.43;;;18.90;99.90;;;;;;5090829;28;20181;-37
2022/10/30 00:41:31;;;;;;;9.73;4.70;;;19.00;99.90;;;;;;5093240;28;20172;-37
2022/10/30 00:43:56;;;;;;;8.00;5.73;;;19.00;99.90;;;;;;5092759;28;20188;-38
2022/10/30 00:46:25;;;;;;;7.50;4.67;;;18.90;99.90;;;;;;5092693;28;20191;-38
2022/10/30 00:48:57;;;;;;;8.13;4.90;;;19.00;99.90;;;;;;5092430;28;20172;-38
2022/10/30 00:51:23;;;;;;;10.10;4.90;;;18.90;99.90;;;;;;5092811;28;20419;-38
2022/10/30 00:53:50;;;;;;;11.83;5.43;;;18.90;99.90;;;;;;5092386;28;20473;-37
2022/10/30 00:56:20;;;;;;;9.50;4.40;;;18.80;99.90;;;;;;5092841;28;20453;-37
2022/10/30 00:58:54;;;;;;;8.23;4.80;;;18.80;99.90;;;;;;5092052;28;20976;-38
2022/10/30 01:01:23;;;;;;;8.40;4.87;;;18.80;99.90;;;;;;5092782;28;20461;-37
2022/10/30 01:03:53;;;;;;;9.43;5.10;;;18.80;99.90;;;;;;5092200;28;20459;-38
2022/10/30 01:06:19;;;;;;;8.10;4.60;;;18.80;99.90;;;;;;5092633;28;20650;-38
2022/10/30 01:08:46;;;;;;;15.63;4.83;;;18.70;99.90;;;;;;5092113;28;20422;-38
2022/10/30 01:11:11;;;;;;;9.63;5.43;;;18.60;99.90;;;;;;5084544;28;20302;-37
2022/10/30 01:13:38;;;;;;;6.90;5.20;;;18.60;99.90;;;;;;5078337;28;20587;-37
2022/10/30 01:16:09;;;;;;;8.67;5.17;;;18.60;99.90;;;;;;5092100;28;20184;-38
2022/10/30 01:18:54;;;;;;;11.53;4.97;;;18.60;99.90;;;;;;5091760;28;20425;-37
2022/10/30 01:21:28;;;;;;;8.60;5.00;;;18.50;99.90;;;;;;5072770;28;20918;-38
2022/10/30 01:24:15;;;;;;;8.40;4.30;;;18.40;99.90;;;;;;5079238;28;20406;-38
2022/10/30 01:27:11;;;;;;;8.80;4.77;;;18.40;99.90;;;;;;5074409;28;20442;-37
2022/10/30 01:29:43;;;;;;;6.67;4.60;;;18.40;99.90;;;;;;5086846;28;20448;-38
2022/10/30 01:32:26;;;;;;;8.47;4.80;;;18.30;99.90;;;;;;5091810;28;20879;-38
2022/10/30 01:35:01;;;;;;;7.83;5.00;;;18.30;99.90;;;;;;5090304;28;20427;-38
2022/10/30 01:37:45;;;;;;;9.30;5.10;;;18.30;99.90;;;;;;5091891;28;20409;-37
2022/10/30 01:40:13;;;;;;;5.57;4.37;;;18.20;99.90;;;;;;5091452;28;20467;-38
2022/10/30 01:42:51;;;;;;;8.33;4.40;;;18.20;99.90;;;;;;5091239;28;20438;-38
2022/10/30 01:45:30;;;;;;;6.10;4.40;;;18.10;99.90;;;;;;5086127;28;20430;-37
2022/10/30 01:48:04;;;;;;;6.30;4.97;;;18.10;99.90;;;;;;5071293;28;20472;-37
2022/10/30 01:50:36;;;;;;;10.83;5.23;;;18.10;99.90;;;;;;5071992;28;20464;-38
2022/10/30 01:53:17;;;;;;;7.97;4.20;;;18.00;99.90;;;;;;5083776;28;20479;-38
2022/10/30 01:56:06;;;;;;;8.17;5.13;;;18.00;99.90;;;;;;5084486;28;20403;-37
2022/10/30 01:58:49;;;;;;;9.43;4.57;;;17.90;99.90;;;;;;5070940;28;20929;-38
2022/10/30 02:01:16;;;;;;;9.67;4.80;;;18.00;99.90;;;;;;5078627;28;20417;-38
2022/10/30 02:03:43;;;;;;;10.37;5.33;;;18.00;99.90;;;;;;5091050;28;20552;-39
2022/10/30 02:06:08;;;;;;;6.73;4.50;;;17.90;99.90;;;;;;5091072;28;20438;-38
2022/10/30 02:08:34;;;;;;;17.23;4.93;;;17.90;99.90;;;;;;5089441;28;20447;-38
2022/10/30 02:11:00;;;;;;;12.27;5.00;;;17.80;99.90;;;;;;5069690;28;20184;-38
2022/10/30 02:13:26;;;;;;;11.07;4.77;;;17.70;99.90;;;;;;5089708;28;20318;-37
2022/10/30 02:15:52;;;;;;;6.97;4.73;;;17.60;99.90;;;;;;5090778;28;20664;-38
2022/10/30 02:18:17;;;;;;;9.13;4.80;;;17.50;99.90;;;;;;5091058;28;20184;-38
2022/10/30 02:20:43;;;;;;;8.00;4.60;;;17.30;99.90;;;;;;5087386;28;20184;-37
2022/10/30 02:23:15;;;;;;;8.40;5.03;;;17.30;99.90;;;;;;5082347;28;20188;-37
2022/10/30 02:25:41;;;;;;;11.27;4.70;;;17.50;99.90;;;;;;5085182;28;20660;-38
2022/10/30 02:28:06;;;;;;;8.73;4.97;;;17.50;99.90;;;;;;5070608;28;20436;-37
2022/10/30 02:30:32;;;;;;;15.00;6.00;;;17.50;99.90;;;;;;5068429;28;20189;-38
2022/10/30 02:32:58;;;;;;;7.50;4.80;;;17.60;99.90;;;;;;5070034;28;20224;-38
2022/10/30 02:35:23;;;;;;;8.47;4.93;;;17.50;99.90;;;;;;5070415;28;20205;-38
2022/10/30 02:37:49;;;;;;;6.27;4.20;;;17.40;99.90;;;;;;5070421;28;20300;-38
2022/10/30 02:40:15;;;;;;;9.87;5.40;;;17.30;99.90;;;;;;5070196;28;20606;-37
2022/10/30 02:42:40;;;;;;;11.00;4.90;;;17.30;99.90;;;;;;5073902;28;20181;-37
2022/10/30 02:45:06;;;;;;;7.70;5.07;;;17.30;99.90;;;;;;5085185;28;20242;-38
2022/10/30 02:47:32;;;;;;;9.63;5.80;;;17.30;99.90;;;;;;5088739;28;20208;-38
2022/10/30 02:49:58;;;;;;;11.37;5.70;;;17.20;99.90;;;;;;5090193;28;20465;-38
2022/10/30 02:52:24;;;;;;;7.83;4.87;;;17.30;99.90;;;;;;5090207;28;20991;-37
2022/10/30 02:54:49;;;;;;;10.63;4.47;;;17.20;99.90;;;;;;5089781;28;20218;-37
2022/10/30 02:57:15;;;;;;;6.87;4.57;;;17.20;99.90;;;;;;5090574;28;20221;-37
2022/10/30 02:59:40;;;;;;;8.80;4.93;;;17.30;99.90;;;;;;5089637;28;20192;-37
2022/10/30 03:02:06;;;;;;;8.87;4.67;;;17.30;99.90;;;;;;5089974;28;20192;-38
2022/10/30 03:04:32;;;;;;;14.50;5.33;;;17.30;99.90;;;;;;5089932;28;20971;-38
2022/10/30 03:06:57;;;;;;;6.43;5.20;;;17.30;99.90;;;;;;5090308;28;20231;-37
2022/10/30 03:09:23;;;;;;;12.53;4.90;;;17.40;99.90;;;;;;5089603;28;20692;-38
2022/10/30 03:11:48;;;;;;;6.27;4.53;;;17.40;99.90;;;;;;5090211;28;20196;-37
2022/10/30 03:14:14;;;;;;;8.20;4.50;;;17.40;99.90;;;;;;5089192;28;20674;-37
2022/10/30 03:16:40;;;;;;;9.67;5.27;;;17.30;99.90;;;;;;5080332;28;20185;-37
2022/10/30 03:19:05;;;;;;;6.27;4.67;;;17.30;99.90;;;;;;5085735;28;20180;-37
2022/10/30 03:21:31;;;;;;;8.90;5.27;;;17.30;99.90;;;;;;5090063;28;20235;-38
2022/10/30 03:23:57;;;;;;;9.33;5.13;;;17.10;99.90;;;;;;5089569;28;20192;-37
2022/10/30 03:26:22;;;;;;;14.43;5.03;;;17.00;99.90;;;;;;5080096;28;20808;-37
2022/10/30 03:28:48;;;;;;;13.73;5.70;;;16.90;99.90;;;;;;5068016;28;20246;-37
2022/10/30 03:31:16;;;;;;;6.93;4.47;;;16.70;99.90;;;;;;5069635;28;20192;-38
2022/10/30 03:33:42;;;;;;;7.33;5.00;;;16.60;99.90;;;;;;5069682;28;20311;-38
2022/10/30 03:36:11;;;;;;;8.40;5.03;;;16.60;99.90;;;;;;5069786;28;20948;-37
2022/10/30 03:38:37;;;;;;;6.10;4.90;;;16.70;99.90;;;;;;5069579;28;20460;-37
2022/10/30 03:41:04;;;;;;;6.47;4.20;;;16.80;99.90;;;;;;5069670;28;21059;-37
2022/10/30 03:43:29;;;;;;;9.27;5.23;;;16.80;99.90;;;;;;5069175;28;20411;-38
2022/10/30 03:45:56;;;;;;;10.63;5.27;;;16.70;99.90;;;;;;5069689;28;20426;-37
2022/10/30 03:48:24;;;;;;;15.07;5.30;;;16.70;99.90;;;;;;5069579;28;20185;-37
2022/10/30 03:50:53;;;;;;;10.87;5.10;;;16.70;99.90;;;;;;5071605;28;20427;-37
2022/10/30 03:53:18;;;;;;;9.27;5.00;;;16.70;99.90;;;;;;5082424;28;20477;-40
2022/10/30 03:55:44;;;;;;;10.27;5.00;;;16.80;99.90;;;;;;5089025;28;20415;-37
2022/10/30 03:58:09;;;;;;;7.60;4.80;;;16.80;99.90;;;;;;5089878;28;20556;-37
2022/10/30 04:00:36;;;;;;;6.53;4.67;;;16.90;99.90;;;;;;5089409;28;20826;-38
2022/10/30 04:03:06;;;;;;;9.37;5.10;;;16.80;99.90;;;;;;5089561;28;20180;-37
2022/10/30 04:05:32;;;;;;;10.80;5.30;;;16.80;99.90;;;;;;5089546;28;20427;-37
2022/10/30 04:08:00;;;;;;;9.47;5.33;;;16.70;99.90;;;;;;5089869;28;20495;-38
2022/10/30 04:10:26;;;;;;;9.20;5.50;;;16.70;99.90;;;;;;5087186;28;20176;-37
2022/10/30 04:12:53;;;;;;;6.97;5.07;;;16.80;99.90;;;;;;5089801;28;20553;-38
2022/10/30 04:15:19;;;;;;;7.77;4.70;;;16.70;99.90;;;;;;5092799;28;20798;-37
2022/10/30 04:17:49;;;;;;;7.30;4.90;;;16.70;99.90;;;;;;5093320;28;20493;-38
2022/10/30 04:20:16;;;;;;;11.57;5.47;;;16.70;99.90;;;;;;5093201;28;20200;-37
2022/10/30 04:22:41;;;;;;;8.60;5.10;;;16.60;99.90;;;;;;5093146;28;20417;-37
2022/10/30 04:25:07;;;;;;;10.03;6.03;;;16.50;99.90;;;;;;5093104;28;20406;-37
2022/10/30 04:27:42;;;;;;;9.70;5.47;;;16.40;99.90;;;;;;5093243;28;20263;-37
2022/10/30 04:30:09;;;;;;;8.67;5.63;;;16.30;99.90;;;;;;5091431;28;20760;-38
2022/10/30 04:32:35;;;;;;;9.30;5.27;;;16.30;99.90;;;;;;5093047;28;20406;-38
2022/10/30 04:35:02;;;;;;;5.97;4.90;;;16.30;99.90;;;;;;5093135;28;20475;-38
2022/10/30 04:37:28;;;;;;;12.50;5.60;;;16.30;99.90;;;;;;5092933;28;20274;-39
2022/10/30 04:39:54;;;;;;;6.07;5.10;;;16.30;99.90;;;;;;5092792;28;20863;-37
2022/10/30 04:42:19;;;;;;;10.53;5.50;;;16.40;99.90;;;;;;5092839;28;20233;-37
2022/10/30 04:44:45;;;;;;;7.33;4.40;;;16.20;99.90;;;;;;5093045;28;20702;-37
2022/10/30 04:47:10;;;;;;;11.27;5.50;;;16.20;99.90;;;;;;5093007;28;20180;-38
2022/10/30 04:49:36;;;;;;;9.70;5.37;;;16.20;99.90;;;;;;5092539;28;20183;-38
2022/10/30 04:52:01;;;;;;;8.70;5.20;;;16.30;99.90;;;;;;5092796;28;20180;-37
2022/10/30 04:54:27;;;;;;;6.03;5.30;;;16.30;99.90;;;;;;5092280;28;20713;-37
2022/10/30 04:56:53;;;;;;;9.00;5.70;;;16.30;99.90;;;;;;5092801;28;20631;-38
2022/10/30 04:59:19;;;;;;;7.47;5.30;;;16.20;99.90;;;;;;5092268;28;20403;-37
2022/10/30 05:01:44;;;;;;;11.13;5.50;;;16.10;99.90;;;;;;5092602;28;20176;-37
2022/10/30 05:04:10;;;;;;;7.40;4.93;;;16.00;99.90;;;;;;5090971;28;20184;-39
2022/10/30 05:06:36;;;;;;;9.63;6.27;;;15.90;99.90;;;;;;5092460;28;20286;-37
2022/10/30 05:09:02;;;;;;;10.30;6.03;;;15.90;99.90;;;;;;5091999;28;20184;-37
2022/10/30 05:11:27;;;;;;;10.50;5.50;;;16.00;99.90;;;;;;5092672;28;20534;-37
2022/10/30 05:13:53;;;;;;;12.67;5.40;;;16.00;99.90;;;;;;5091879;28;20453;-37
2022/10/30 05:16:18;;;;;;;6.77;5.10;;;16.10;99.90;;;;;;5092463;28;20176;-38
2022/10/30 05:18:44;;;;;;;9.03;5.90;;;16.10;99.90;;;;;;5090456;28;20666;-38
2022/10/30 05:21:10;;;;;;;9.37;5.60;;;16.10;99.90;;;;;;5092068;28;20180;-37
2022/10/30 05:23:35;;;;;;;9.40;4.70;;;16.20;99.90;;;;;;5091749;28;20180;-38
2022/10/30 05:26:01;;;;;;;13.03;5.33;;;16.20;99.90;;;;;;5091395;28;20188;-38
2022/10/30 05:28:27;;;;;;;11.87;5.47;;;16.10;99.90;;;;;;5082908;28;20211;-37
2022/10/30 05:30:53;;;;;;;10.70;5.43;;;16.10;99.90;;;;;;5090151;28;20446;-37
2022/10/30 05:33:19;;;;;;;13.00;5.60;;;16.00;99.90;;;;;;5091774;28;20204;-38
2022/10/30 05:35:44;;;;;;;8.33;5.53;;;16.00;99.90;;;;;;5091770;28;20212;-37
2022/10/30 05:38:11;;;;;;;7.67;5.70;;;15.90;99.90;;;;;;5092051;28;20666;-37
2022/10/30 05:40:37;;;;;;;7.40;4.20;;;16.00;99.90;;;;;;5091509;28;20721;-37
2022/10/30 05:43:04;;;;;;;9.87;5.50;;;15.90;99.90;;;;;;5091665;28;20485;-37
2022/10/30 05:45:30;;;;;;;8.60;5.13;;;15.90;99.90;;;;;;5091780;28;20188;-38
2022/10/30 05:47:57;;;;;;;9.83;5.83;;;16.10;99.90;;;;;;5091961;28;21031;-37
2022/10/30 05:50:24;;;;;;;8.53;5.03;;;16.20;99.90;;;;;;5091130;28;20421;-37
2022/10/30 05:52:57;;;;;;;7.30;5.17;;;16.10;99.90;;;;;;5091411;28;20971;-38
2022/10/30 05:55:23;;;;;;;7.80;5.40;;;16.10;99.90;;;;;;5091579;28;20464;-38
2022/10/30 05:57:49;;;;;;;11.47;6.50;;;16.10;99.90;;;;;;5091616;28;20414;-38
2022/10/30 06:00:15;;;;;;;9.77;5.63;;;16.00;99.90;;;;;;5091109;28;20427;-37
2022/10/30 06:02:40;;;;;;;10.87;5.87;;;16.00;99.90;;;;;;5088955;28;20194;-38
2022/10/30 06:05:06;;;;;;;10.30;5.40;;;15.90;99.90;;;;;;5091286;28;20409;-37
2022/10/30 06:07:32;;;;;;;12.47;5.20;;;16.00;99.90;;;;;;5091193;28;20196;-37
2022/10/30 06:09:58;;;;;;;9.70;5.00;;;16.00;99.90;;;;;;5090969;28;20407;-37
2022/10/30 06:12:23;;;;;;;8.53;5.30;;;16.00;99.90;;;;;;5091054;28;20173;-37
2022/10/30 06:14:49;;;;;;;10.13;5.90;;;16.00;99.90;;;;;;5091211;28;20585;-37
2022/10/30 06:17:14;;;;;;;9.87;5.50;;;16.00;99.90;;;;;;5091085;28;20191;-38
2022/10/30 06:19:40;;;;;;;9.80;6.47;;;15.90;99.90;;;;;;5090567;28;20185;-37
2022/10/30 06:22:06;;;;;;;12.77;5.30;;;16.00;99.90;;;;;;5091249;28;20172;-38
2022/10/30 06:24:31;;;;;;;9.00;5.33;;;15.90;99.90;;;;;;5090786;28;20183;-38
2022/10/30 06:26:58;;;;;;;8.07;5.53;;;15.90;99.90;;;;;;5090928;28;20213;-37
2022/10/30 06:29:23;;;;;;;7.90;4.93;;;16.00;99.90;;;;;;5087951;28;20588;-38
2022/10/30 06:31:49;;;;;;;10.30;4.90;;;16.00;99.90;;;;;;5090722;28;20410;-37
2022/10/30 06:34:14;;;;;;;12.70;6.50;;;16.00;99.90;;;;;;5090476;28;20207;-38
2022/10/30 06:36:40;;;;;;;12.93;7.27;;;15.90;99.90;;;;;;5090135;28;20271;-37
2022/10/30 06:39:06;;;;;;;10.13;5.57;;;15.90;99.90;;;;;;5090472;28;20657;-37
2022/10/30 06:41:33;;;;;;;8.33;5.67;;;15.90;99.90;;;;;;5090752;28;21150;-37
2022/10/30 06:43:59;;;;;;;9.63;5.77;;;16.00;99.90;;;;;;5090394;28;20172;-37
2022/10/30 06:46:24;;;;;;;8.97;5.10;;;15.90;99.90;;;;;;5090758;28;20950;-37
2022/10/30 06:48:50;;;;;;;7.83;5.83;;;15.80;99.90;;;;;;5083264;28;20180;-37
2022/10/30 06:51:16;;;;;;;7.90;5.73;;;15.90;99.90;;;;;;5090496;28;20191;-37
2022/10/30 06:53:42;;;;;;;11.10;6.00;;;15.80;99.90;;;;;;5081206;28;20204;-38
2022/10/30 06:56:08;;;;;;;8.93;5.60;;;15.80;99.90;;;;;;5090457;28;20487;-37
2022/10/30 06:58:37;;;;;;;12.63;5.93;;;15.80;99.90;;;;;;5083903;28;20184;-37
2022/10/30 07:01:05;;;;;;;11.73;6.00;;;15.80;99.90;;;;;;5090467;28;20423;-37
2022/10/30 07:03:31;;;;;;;10.70;5.67;;;15.80;99.90;;;;;;5089814;28;20478;-37
2022/10/30 07:05:56;;;;;;;13.90;5.73;;;15.90;99.90;;;;;;5090338;28;20430;-37
2022/10/30 07:08:22;;;;;;;9.87;5.43;;;15.90;99.90;;;;;;5089933;28;20506;-37
2022/10/30 07:10:48;;;;;;;13.23;5.50;;;15.90;99.90;;;;;;5105681;28;20249;-37
2022/10/30 07:13:13;;;;;;;9.80;5.13;;;16.00;99.90;;;;;;5084043;28;20220;-37
2022/10/30 07:15:39;;;;;;;10.50;5.90;;;16.10;99.90;;;;;;5087754;28;20180;-38
2022/10/30 07:18:05;;;;;;;9.73;6.23;;;16.20;99.90;;;;;;5089264;28;20184;-37
2022/10/30 07:20:33;;;;;;;8.67;5.97;;;16.30;99.90;;;;;;5088826;28;20177;-38
2022/10/30 07:22:59;;;;;;;6.63;5.17;;;16.30;99.90;;;;;;5089089;28;20184;-37
2022/10/30 07:25:25;;;;;;;11.93;5.60;;;16.40;99.90;;;;;;5089093;28;20429;-37
2022/10/30 07:27:53;;;;;;;10.93;6.27;;;16.50;99.90;;;;;;5087709;28;20796;-37
2022/10/30 07:30:21;;;;;;;6.90;5.40;;;16.60;99.90;;;;;;5087893;28;20718;-37
2022/10/30 07:32:59;;;;;;;13.27;5.30;;;16.70;99.90;;;;;;5069533;28;20431;-38
2022/10/30 07:35:25;;;;;;;12.47;5.17;;;16.80;99.90;;;;;;5071850;28;20447;-37
2022/10/30 07:37:50;;;;;;;8.13;5.53;;;17.00;99.90;;;;;;5076739;28;20469;-38
2022/10/30 07:40:16;;;;;;;7.83;5.00;;;17.10;99.90;;;;;;5093026;28;20200;-38
2022/10/30 07:42:42;;;;;;;9.20;5.70;;;17.30;99.90;;;;;;5083996;28;20353;-37
2022/10/30 07:45:08;;;;;;;7.20;5.70;;;17.40;99.90;;;;;;5088807;28;20211;-38
2022/10/30 07:47:41;;;;;;;8.30;5.80;;;17.40;99.90;;;;;;5085492;28;20298;-38
2022/10/30 07:50:08;;;;;;;11.00;5.50;;;17.40;99.90;;;;;;5080371;28;20446;-38
2022/10/30 07:52:33;;;;;;;6.77;5.80;;;17.60;99.90;;;;;;5091259;28;20442;-37
2022/10/30 07:54:59;;;;;;;9.97;5.30;;;17.90;99.90;;;;;;5083136;28;20994;-37
2022/10/30 07:57:25;;;;;;;10.40;6.40;;;18.10;99.90;;;;;;5087955;28;20213;-37
2022/10/30 07:59:50;;;;;;;12.20;5.33;;;18.30;99.90;;;;;;5089219;28;20215;-37
2022/10/30 08:02:16;;;;;;;10.50;4.97;;;18.20;99.90;;;;;;5092831;28;20593;-37
2022/10/30 08:04:41;;;;;;;10.23;5.37;;;18.20;99.90;;;;;;5086257;28;20216;-37
2022/10/30 08:07:08;;;;;;;12.80;5.53;;;18.30;99.90;;;;;;5088163;28;20231;-38
2022/10/30 08:09:33;;;;;;;7.17;5.70;;;18.40;99.90;;;;;;5086653;28;20567;-37
2022/10/30 08:11:59;;;;;;;13.20;7.03;;;18.50;99.90;;;;;;5089391;28;20476;-38
2022/10/30 08:14:25;;;;;;;9.87;5.33;;;18.50;99.90;;;;;;5085217;28;20220;-37
2022/10/30 08:16:51;;;;;;;9.03;5.20;;;18.60;99.90;;;;;;5086482;28;20219;-38
2022/10/30 08:19:16;;;;;;;11.87;4.93;;;18.70;99.90;;;;;;5084706;28;20878;-38
2022/10/30 08:21:42;;;;;;;11.30;5.50;;;18.90;99.90;;;;;;5086066;28;20201;-38
2022/10/30 08:24:08;;;;;;;10.90;5.87;;;19.10;99.90;;;;;;5084764;28;20559;-40
2022/10/30 08:26:34;;;;;;;8.37;5.33;;;19.20;99.90;;;;;;5088733;28;20211;-37
2022/10/30 08:29:00;;;;;;;12.40;5.90;;;19.30;99.90;;;;;;5085011;28;20220;-38
2022/10/30 08:31:26;;;;;;;7.80;5.00;;;19.40;99.90;;;;;;5089271;28;20468;-37
2022/10/30 08:33:51;;;;;;;11.60;6.20;;;19.60;99.90;;;;;;5087961;28;20262;-38
2022/10/30 08:36:17;;;;;;;9.37;5.00;;;19.60;99.90;;;;;;5088927;28;20202;-37
2022/10/30 08:38:42;;;;;;;9.93;5.70;;;19.80;99.90;;;;;;5080722;28;20303;-39
2022/10/30 08:41:08;;;;;;;14.40;5.60;;;19.90;99.90;;;;;;5088921;28;20204;-37
2022/10/30 08:43:33;;;;;;;8.03;6.03;;;20.00;99.90;;;;;;5078590;28;20251;-39
2022/10/30 08:46:00;;;;;;;14.33;6.53;;;20.10;99.90;;;;;;5073651;28;20209;-37
2022/10/30 08:48:26;;;;;;;11.23;5.33;;;20.20;99.90;;;;;;5073909;28;20248;-37
2022/10/30 08:50:52;;;;;;;6.50;5.13;;;20.30;99.90;;;;;;5072858;28;20841;-39
2022/10/30 08:53:19;;;;;;;7.87;4.73;;;20.30;99.90;;;;;;5072136;28;20339;-40
2022/10/30 08:55:44;;;;;;;8.20;5.20;;;20.40;99.90;;;;;;5073443;28;20436;-39
2022/10/30 08:58:10;;;;;;;13.23;5.87;;;20.50;99.90;;;;;;5086567;28;20486;-38
2022/10/30 09:00:36;;;;;;;13.90;5.10;;;20.50;99.90;;;;;;5092013;28;20538;-37
2022/10/30 09:03:01;;;;;;;13.37;4.77;;;20.60;99.90;;;;;;5095538;28;20589;-38
2022/10/30 09:05:27;;;;;;;10.03;6.57;;;20.70;99.90;;;;;;5086267;28;20228;-38
2022/10/30 09:07:59;;;;;;;9.77;5.10;;;20.70;99.90;;;;;;5078053;28;20228;-38
2022/10/30 09:10:26;;;;;;;9.03;5.10;;;20.80;99.90;;;;;;5075643;28;20212;-38
2022/10/30 09:12:56;;;;;;;8.30;5.20;;;21.00;99.90;;;;;;5089295;28;20458;-37
2022/10/30 09:15:23;;;;;;;16.00;4.90;;;21.20;99.90;;;;;;5085712;28;20451;-38
2022/10/30 09:17:55;;;;;;;11.83;5.40;;;21.30;99.90;;;;;;5086134;28;20454;-38
2022/10/30 09:20:20;;;;;;;9.60;5.17;;;21.50;99.90;;;;;;5076128;28;20533;-38
2022/10/30 09:22:46;;;;;;;9.97;5.30;;;21.50;99.90;;;;;;5083479;28;20597;-37
2022/10/30 09:25:11;;;;;;;7.23;4.70;;;21.60;99.90;;;;;;5083318;28;20339;-39
2022/10/30 09:27:38;;;;;;;6.40;4.90;;;21.60;99.90;;;;;;5076782;28;20217;-38
2022/10/30 09:30:05;;;;;;;13.43;5.10;;;21.70;99.90;;;;;;5072037;28;20203;-40
2022/10/30 09:32:30;;;;;;;9.73;5.20;;;21.90;99.90;;;;;;5087212;28;20467;-39
2022/10/30 09:34:56;;;;;;;10.90;5.00;;;22.00;99.90;;;;;;5080739;28;20623;-39
2022/10/30 09:37:26;;;;;;;10.73;5.77;;;22.10;99.90;;;;;;5080064;28;20224;-38
2022/10/30 09:39:51;;;;;;;10.50;4.90;;;22.30;99.90;;;;;;5090234;28;20197;-39
2022/10/30 09:42:53;;;;;;;10.40;4.80;;;22.30;99.90;;;;;;5091286;28;20468;-39
2022/10/30 09:45:54;;;;;;;10.70;5.23;;;22.50;99.90;;;;;;5040113;28;20774;-38
2022/10/30 09:48:26;;;;;;;5.87;4.67;;;22.50;99.90;;;;;;5091230;28;20446;-39
2022/10/30 09:51:11;;;;;;;10.30;5.00;;;22.60;99.90;;;;;;5087978;28;20798;-38
2022/10/30 09:54:10;;;;;;;10.60;4.60;;;22.60;99.90;;;;;;5078256;28;21129;-38
2022/10/30 09:56:44;;;;;;;6.87;5.10;;;22.60;99.90;;;;;;5081825;28;20778;-39
2022/10/30 09:59:48;;;;;;;6.87;4.83;;;22.50;99.90;;;;;;5084041;28;20572;-40
2022/10/30 10:02:27;;;;;;;11.43;5.27;;;22.50;99.90;;;;;;5074800;28;20454;-38
2022/10/30 10:05:09;;;;;;;13.07;6.23;;;22.50;99.90;;;;;;5077133;28;20450;-38
2022/10/30 10:07:40;;;;;;;6.67;4.50;;;22.50;99.90;;;;;;5087733;28;20458;-39
2022/10/30 10:10:14;;;;;;;6.93;4.97;;;22.50;99.90;;;;;;5086494;28;20443;-39
2022/10/30 10:12:45;;;;;;;8.27;4.00;;;22.50;99.90;;;;;;5089470;28;20526;-38
2022/10/30 10:15:39;;;;;;;6.93;4.33;;;22.50;99.90;;;;;;5083617;28;21355;-38
2022/10/30 10:18:17;;;;;;;11.17;4.77;;;22.50;99.90;;;;;;5089935;28;20976;-38
2022/10/30 10:20:46;;;;;;;12.33;5.20;;;22.50;99.90;;;;;;5085186;28;20759;-38
2022/10/30 10:23:25;;;;;;;6.70;4.90;;;22.50;99.90;;;;;;5089067;28;20461;-38
2022/10/30 10:25:53;;;;;;;10.83;4.70;;;22.40;99.90;;;;;;5086586;28;20847;-38
2022/10/30 10:28:40;;;;;;;10.87;4.43;;;22.50;99.90;;;;;;5087169;28;20445;-38
2022/10/30 10:31:24;;;;;;;7.57;5.00;;;22.40;99.90;;;;;;5079625;28;20438;-40
2022/10/30 10:34:39;;;;;;;9.27;4.63;;;22.40;99.90;;;;;;5077819;28;20510;-40
2022/10/30 10:37:23;;;;;;;7.00;4.20;;;22.40;99.90;;;;;;5078600;28;20435;-39
2022/10/30 10:40:26;;;;;;;7.47;3.93;;;22.40;99.90;;;;;;5084772;28;20450;-39
2022/10/30 10:43:12;;;;;;;8.20;5.00;;;22.30;99.90;;;;;;5083085;28;20443;-38
2022/10/30 10:45:43;;;;;;;11.03;4.70;;;22.30;99.90;;;;;;5092465;28;20807;-39
2022/10/30 10:48:31;;;;;;;9.63;4.20;;;22.30;99.90;;;;;;5093070;28;20440;-38
2022/10/30 10:51:35;;;;;;;7.57;4.13;;;22.20;99.90;;;;;;5075691;28;20445;-39
2022/10/30 10:54:04;;;;;;;8.87;4.80;;;22.20;99.90;;;;;;5075169;28;20501;-38
2022/10/30 10:56:36;;;;;;;8.23;4.33;;;22.20;99.90;;;;;;5077375;28;20431;-38
2022/10/30 10:59:07;;;;;;;10.63;5.03;;;22.20;99.90;;;;;;5081598;28;20514;-40
2022/10/30 11:01:39;;;;;;;8.80;4.83;;;22.10;99.90;;;;;;5090217;28;20955;-41
2022/10/30 11:04:23;;;;;;;6.93;4.57;;;22.10;99.90;;;;;;5073909;28;20835;-38
2022/10/30 11:06:51;;;;;;;11.67;5.47;;;22.10;99.90;;;;;;5076287;28;20501;-41
2022/10/30 11:09:21;;;;;;;9.30;5.30;;;22.10;99.90;;;;;;5077344;28;20456;-38
2022/10/30 11:11:49;;;;;;;8.20;4.50;;;22.20;99.90;;;;;;5081686;28;20471;-38
2022/10/30 11:14:18;;;;;;;10.43;4.83;;;22.10;99.90;;;;;;5069504;28;20558;-38
2022/10/30 11:17:11;;;;;;;7.77;3.90;;;22.10;99.90;;;;;;5073401;28;20426;-38
2022/10/30 11:19:37;;;;;;;9.17;4.40;;;22.20;99.90;;;;;;5088469;28;21107;-39
2022/10/30 11:22:34;;;;;;;11.13;4.50;;;22.20;99.90;;;;;;5089596;28;20410;-38
2022/10/30 11:25:24;;;;;;;6.10;4.40;;;22.20;99.90;;;;;;5085732;28;20235;-37
2022/10/30 11:27:55;;;;;;;12.00;4.53;;;22.20;99.90;;;;;;5090179;28;20439;-39
2022/10/30 11:30:23;;;;;;;8.07;4.63;;;22.30;99.90;;;;;;5088652;28;20889;-37
2022/10/30 11:32:50;;;;;;;11.10;4.60;;;22.30;99.90;;;;;;5087617;28;20427;-38
2022/10/30 11:35:18;;;;;;;9.23;4.97;;;22.40;99.90;;;;;;5084251;28;20418;-38
2022/10/30 11:37:46;;;;;;;10.70;4.30;;;22.40;99.90;;;;;;5089484;28;20418;-38
2022/10/30 11:40:12;;;;;;;9.50;4.63;;;22.40;99.60;;;;;;5089517;28;20760;-38
2022/10/30 11:42:55;;;;;;;9.70;4.23;;;22.50;99.90;;;;;;5088337;28;20456;-38
2022/10/30 11:45:27;;;;;;;8.80;4.53;;;22.50;99.80;;;;;;5089906;28;20229;-38
2022/10/30 11:47:56;;;;;;;13.70;5.50;;;22.60;99.50;;;;;;5090103;28;20839;-38
2022/10/30 11:50:28;;;;;;;8.27;4.43;;;22.60;99.50;;;;;;5089493;28;20405;-38
2022/10/30 11:53:21;;;;;;;8.80;4.83;;;22.70;99.90;;;;;;5089435;28;20429;-38
2022/10/30 11:55:48;;;;;;;9.67;4.60;;;22.70;99.90;;;;;;5089918;28;20467;-37
2022/10/30 11:58:29;;;;;;;9.57;4.73;;;22.70;99.90;;;;;;5089959;28;20415;-38
2022/10/30 12:01:25;;;;;;;8.23;4.37;;;22.70;99.90;;;;;;5089773;28;20402;-41
2022/10/30 12:03:53;;;;;;;10.00;4.10;;;22.70;99.90;;;;;;5087536;28;20422;-39
2022/10/30 12:06:21;;;;;;;8.33;4.30;;;22.70;99.90;;;;;;5089743;28;20458;-40
2022/10/30 12:09:21;;;;;;;9.00;3.90;;;22.80;99.90;;;;;;5089477;28;20406;-38
2022/10/30 12:11:47;;;;;;;9.17;4.60;;;22.80;99.20;;;;;;5089491;28;20409;-38
2022/10/30 12:14:25;;;;;;;11.17;4.00;;;22.90;99.50;;;;;;5089235;28;20963;-38
2022/10/30 12:16:54;;;;;;;15.80;4.70;;;22.80;99.60;;;;;;5089656;28;20437;-38
2022/10/30 12:19:22;;;;;;;8.63;4.60;;;22.80;99.50;;;;;;5087981;28;21343;-41
2022/10/30 12:21:53;;;;;;;8.97;4.27;;;22.90;99.60;;;;;;5089482;28;20745;-38
2022/10/30 12:24:30;;;;;;;9.80;5.23;;;22.90;98.90;;;;;;5088797;28;20451;-38
2022/10/30 12:27:01;;;;;;;12.70;4.63;;;22.90;99.20;;;;;;5089610;28;20489;-38
2022/10/30 12:29:43;;;;;;;7.57;4.23;;;23.00;98.70;;;;;;5088261;28;20415;-42
2022/10/30 12:32:16;;;;;;;6.50;4.10;;;23.00;98.80;;;;;;5088249;28;20940;-38
2022/10/30 12:34:56;;;;;;;15.40;4.60;;;23.00;98.90;;;;;;5080358;28;20457;-38
2022/10/30 12:37:28;;;;;;;10.07;4.87;;;23.00;98.90;;;;;;5092137;28;20441;-39
2022/10/30 12:39:56;;;;;;;6.80;3.63;;;22.90;98.90;;;;;;5072506;28;20415;-38
2022/10/30 12:42:24;;;;;;;6.17;3.83;;;22.90;98.90;;;;;;5079672;28;20427;-38
2022/10/30 12:44:49;;;;;;;7.77;4.50;;;22.90;98.60;;;;;;5090993;28;20426;-38
2022/10/30 12:47:33;;;;;;;9.27;4.03;;;22.90;98.60;;;;;;5072406;28;20472;-38
2022/10/30 12:50:23;;;;;;;9.30;5.30;;;22.80;98.90;;;;;;5083653;28;20618;-38
2022/10/30 12:53:25;;;;;;;12.30;4.43;;;22.80;99.00;;;;;;5107971;28;20424;-38
2022/10/30 12:56:14;;;;;;;7.90;4.50;;;22.80;99.10;;;;;;5091319;28;20492;-38